Time;durP1;ratioP1;P1;durP2;ratioP2;P2;SDS_P1;SDS_P2;PMS_P1;PMS_P2;Temp;Humidity;BMP_temperature;BMP_pressure;BME280_temperature;BME280_humidity;BME280_pressure;Samples;Min_cycle;Max_cycle;Signal;HPM_P1;HPM_P2
2023/09/18 00:02:24;;;;;;;7.50;6.80;;;20.20;99.90;;;;;;5024782;28;20307;-66
2023/09/18 00:04:52;;;;;;;10.40;7.13;;;20.20;99.90;;;;;;5029382;28;20312;-66
2023/09/18 00:07:21;;;;;;;7.73;6.97;;;20.10;99.90;;;;;;5044778;28;20225;-65
2023/09/18 00:09:51;;;;;;;9.10;6.93;;;20.10;99.90;;;;;;5046147;28;20225;-66
2023/09/18 00:12:19;;;;;;;8.47;7.63;;;20.10;99.90;;;;;;5032115;28;20285;-66
2023/09/18 00:14:51;;;;;;;9.40;6.97;;;20.10;99.90;;;;;;5028693;28;20264;-66
2023/09/18 00:17:19;;;;;;;10.63;6.90;;;20.20;99.90;;;;;;5038873;28;20315;-66
2023/09/18 00:19:47;;;;;;;9.87;6.97;;;20.10;99.90;;;;;;5038286;28;20213;-66
2023/09/18 00:22:16;;;;;;;8.17;6.97;;;20.20;99.90;;;;;;5037079;28;20279;-65
2023/09/18 00:24:44;;;;;;;7.53;6.50;;;20.40;99.90;;;;;;5032770;28;20220;-65
2023/09/18 00:27:12;;;;;;;8.23;6.80;;;20.50;99.90;;;;;;5038653;28;20547;-65
2023/09/18 00:29:41;;;;;;;6.97;6.20;;;20.60;99.90;;;;;;5038437;28;20247;-66
2023/09/18 00:32:11;;;;;;;7.57;6.27;;;20.70;99.90;;;;;;5037762;28;20245;-65
2023/09/18 00:34:39;;;;;;;9.37;6.97;;;20.70;99.90;;;;;;5040824;28;20217;-65
2023/09/18 00:37:10;;;;;;;8.00;7.27;;;20.60;99.90;;;;;;5038650;28;20296;-65
2023/09/18 00:39:39;;;;;;;9.23;6.93;;;20.60;99.90;;;;;;5034986;28;20636;-65
2023/09/18 00:42:07;;;;;;;11.10;7.23;;;20.60;99.90;;;;;;5037799;28;20225;-64
2023/09/18 00:44:36;;;;;;;11.80;7.60;;;20.60;99.90;;;;;;5033601;28;20209;-64
2023/09/18 00:47:04;;;;;;;10.53;8.30;;;20.50;99.90;;;;;;5035018;28;20227;-64
2023/09/18 00:49:34;;;;;;;13.97;8.13;;;20.50;99.90;;;;;;5031782;28;20221;-64
2023/09/18 00:52:03;;;;;;;11.17;8.23;;;20.40;99.90;;;;;;5035281;28;20308;-64
2023/09/18 00:54:33;;;;;;;9.27;8.33;;;20.40;99.90;;;;;;5034679;28;20583;-64
2023/09/18 00:57:02;;;;;;;11.57;8.40;;;20.40;99.90;;;;;;5032214;28;20220;-64
2023/09/18 00:59:31;;;;;;;15.23;9.00;;;20.40;99.90;;;;;;5054018;28;20750;-64
2023/09/18 01:02:00;;;;;;;19.80;9.53;;;20.40;99.90;;;;;;5050782;28;20554;-64
2023/09/18 01:04:32;;;;;;;10.77;8.90;;;20.40;99.90;;;;;;5051048;28;21056;-64
2023/09/18 01:07:03;;;;;;;13.73;8.83;;;20.30;99.90;;;;;;5051935;28;20251;-64
2023/09/18 01:09:32;;;;;;;14.50;9.17;;;20.20;99.90;;;;;;5051094;28;20266;-64
2023/09/18 01:12:06;;;;;;;13.03;8.87;;;20.10;99.90;;;;;;5050604;28;20216;-64
2023/09/18 01:14:42;;;;;;;11.40;8.93;;;20.00;99.90;;;;;;5034155;28;20252;-63
2023/09/18 01:17:13;;;;;;;11.23;8.83;;;20.00;99.90;;;;;;5032595;28;20216;-64
2023/09/18 01:19:45;;;;;;;14.60;8.03;;;20.00;99.90;;;;;;5031513;28;20236;-64
2023/09/18 01:22:16;;;;;;;11.97;8.53;;;19.90;99.90;;;;;;5035413;28;20217;-64
2023/09/18 01:24:48;;;;;;;11.03;7.53;;;19.90;99.90;;;;;;5033462;28;20220;-64
2023/09/18 01:27:19;;;;;;;12.23;8.67;;;19.90;99.90;;;;;;5032079;28;20228;-64
2023/09/18 01:29:48;;;;;;;11.37;8.30;;;19.90;99.90;;;;;;5032568;28;20595;-64
2023/09/18 01:32:17;;;;;;;10.43;7.87;;;19.90;99.90;;;;;;5035783;28;20213;-64
2023/09/18 01:34:48;;;;;;;10.53;8.13;;;19.90;99.90;;;;;;5033027;28;20229;-65
2023/09/18 01:37:20;;;;;;;11.00;8.13;;;19.90;99.90;;;;;;5036148;28;20221;-64
2023/09/18 01:39:52;;;;;;;9.43;7.53;;;19.90;99.90;;;;;;5034353;28;20633;-64
2023/09/18 01:42:21;;;;;;;10.27;7.20;;;19.90;99.90;;;;;;5037638;28;20288;-64
2023/09/18 01:44:49;;;;;;;12.23;7.90;;;19.80;99.90;;;;;;5033148;28;20197;-64
2023/09/18 01:47:20;;;;;;;10.57;7.17;;;19.70;99.90;;;;;;5031527;28;20225;-64
2023/09/18 01:49:49;;;;;;;11.20;7.40;;;19.60;99.90;;;;;;5030368;28;20221;-64
2023/09/18 01:52:17;;;;;;;12.00;7.33;;;19.60;99.90;;;;;;5033685;28;20289;-64
2023/09/18 01:54:46;;;;;;;11.67;6.97;;;19.60;99.90;;;;;;5031731;28;20252;-64
2023/09/18 01:57:16;;;;;;;9.43;7.53;;;19.60;99.90;;;;;;5031848;28;20712;-64
2023/09/18 01:59:45;;;;;;;9.80;7.53;;;19.60;99.90;;;;;;5031254;28;20916;-64
2023/09/18 02:02:15;;;;;;;10.83;7.50;;;19.60;99.90;;;;;;5033270;28;20228;-64
2023/09/18 02:04:52;;;;;;;8.80;6.90;;;19.60;99.90;;;;;;5035284;28;20326;-64
2023/09/18 02:07:35;;;;;;;16.63;6.77;;;19.60;99.90;;;;;;5032266;28;20220;-64
2023/09/18 02:10:04;;;;;;;8.57;6.73;;;19.60;99.90;;;;;;5034782;28;20585;-64
2023/09/18 02:12:34;;;;;;;8.77;6.27;;;19.60;99.90;;;;;;5035589;28;20299;-64
2023/09/18 02:15:06;;;;;;;7.20;5.93;;;19.50;99.90;;;;;;5031208;28;20234;-64
2023/09/18 02:17:36;;;;;;;9.00;5.70;;;19.40;99.90;;;;;;5032523;28;20232;-65
2023/09/18 02:20:11;;;;;;;9.17;5.80;;;19.30;99.90;;;;;;5027297;28;20310;-64
2023/09/18 02:22:40;;;;;;;6.23;5.30;;;19.40;99.90;;;;;;5045630;28;20575;-64
2023/09/18 02:25:09;;;;;;;9.33;5.33;;;19.30;99.90;;;;;;5044027;28;20576;-64
2023/09/18 02:27:39;;;;;;;8.07;5.37;;;19.20;99.90;;;;;;5030773;28;20739;-64
2023/09/18 02:30:09;;;;;;;5.97;5.37;;;19.20;99.90;;;;;;5031004;28;20193;-64
2023/09/18 02:32:38;;;;;;;8.83;5.50;;;19.10;99.90;;;;;;5035472;28;21327;-64
2023/09/18 02:35:08;;;;;;;8.50;5.57;;;19.10;99.90;;;;;;5035223;28;20279;-64
2023/09/18 02:37:37;;;;;;;6.03;5.20;;;19.10;99.90;;;;;;5026843;28;20228;-64
2023/09/18 02:40:07;;;;;;;5.73;5.23;;;19.10;99.90;;;;;;5034893;28;20224;-64
2023/09/18 02:42:35;;;;;;;8.83;5.70;;;19.10;99.90;;;;;;5047994;28;20221;-64
2023/09/18 02:45:08;;;;;;;7.47;5.93;;;19.10;99.90;;;;;;5024870;28;20563;-64
2023/09/18 02:47:37;;;;;;;6.60;5.70;;;19.10;99.90;;;;;;5044346;28;20203;-64
2023/09/18 02:50:06;;;;;;;6.70;5.70;;;19.10;99.90;;;;;;5054547;28;20208;-64
2023/09/18 02:52:35;;;;;;;7.20;6.30;;;19.20;99.90;;;;;;5054954;28;20211;-64
2023/09/18 02:55:04;;;;;;;8.77;6.53;;;19.20;99.90;;;;;;5055585;28;20687;-64
2023/09/18 02:57:32;;;;;;;12.37;7.00;;;19.20;99.90;;;;;;5053275;28;20319;-64
2023/09/18 03:00:00;;;;;;;9.83;6.87;;;19.20;99.90;;;;;;5055342;28;20208;-65
2023/09/18 03:02:30;;;;;;;9.60;7.10;;;19.20;99.90;;;;;;5051337;28;20220;-64
2023/09/18 03:04:59;;;;;;;8.93;7.23;;;19.20;99.90;;;;;;5055623;28;20293;-64
2023/09/18 03:07:29;;;;;;;10.70;7.63;;;19.20;99.90;;;;;;5060524;28;20223;-64
2023/09/18 03:09:57;;;;;;;11.93;7.67;;;19.30;99.90;;;;;;5052615;28;20234;-64
2023/09/18 03:12:26;;;;;;;13.67;8.13;;;19.30;99.90;;;;;;5058122;28;20650;-65
2023/09/18 03:14:54;;;;;;;12.63;8.17;;;19.30;99.90;;;;;;5054464;28;20887;-65
2023/09/18 03:17:23;;;;;;;14.00;8.13;;;19.30;99.90;;;;;;5056559;28;20948;-65
2023/09/18 03:19:52;;;;;;;10.30;8.00;;;19.30;99.90;;;;;;5054451;28;20221;-65
2023/09/18 03:22:21;;;;;;;11.23;8.33;;;19.20;99.90;;;;;;5061427;28;20311;-65
2023/09/18 03:24:49;;;;;;;12.87;8.33;;;19.20;99.90;;;;;;5054895;28;20240;-65
2023/09/18 03:27:19;;;;;;;13.70;7.83;;;19.20;99.90;;;;;;5058024;28;20189;-65
2023/09/18 03:29:48;;;;;;;10.53;7.77;;;19.20;99.90;;;;;;5054192;28;20313;-65
2023/09/18 03:32:16;;;;;;;11.17;8.20;;;19.20;99.90;;;;;;5057586;28;20224;-65
2023/09/18 03:34:45;;;;;;;11.30;7.40;;;19.20;99.90;;;;;;5056444;28;21626;-63
2023/09/18 03:37:14;;;;;;;11.10;8.03;;;19.20;99.90;;;;;;5052000;28;20312;-63
2023/09/18 03:39:43;;;;;;;12.90;7.97;;;19.20;99.90;;;;;;5053615;28;20306;-63
2023/09/18 03:42:11;;;;;;;11.40;7.13;;;19.20;99.90;;;;;;5057613;28;20201;-64
2023/09/18 03:44:40;;;;;;;9.43;6.50;;;19.10;99.90;;;;;;5056795;28;20284;-64
2023/09/18 03:47:08;;;;;;;8.60;7.13;;;19.10;99.90;;;;;;5057023;28;20303;-63
2023/09/18 03:49:36;;;;;;;8.67;6.50;;;19.10;99.90;;;;;;5052503;28;20247;-64
2023/09/18 03:52:05;;;;;;;12.67;6.30;;;19.10;99.90;;;;;;5053140;28;20212;-64
2023/09/18 03:54:35;;;;;;;9.80;5.93;;;19.10;99.90;;;;;;5050250;28;20303;-64
2023/09/18 03:57:03;;;;;;;8.20;5.70;;;19.10;99.90;;;;;;5053263;28;20197;-64
2023/09/18 03:59:32;;;;;;;7.03;4.73;;;19.00;99.90;;;;;;5057529;28;20562;-71
2023/09/18 04:02:00;;;;;;;7.53;4.70;;;19.00;99.90;;;;;;5054582;28;20345;-71
2023/09/18 04:04:29;;;;;;;7.10;4.50;;;19.00;99.90;;;;;;5050401;28;20221;-71
2023/09/18 04:06:57;;;;;;;6.27;4.33;;;18.90;99.90;;;;;;5053431;28;20216;-71
2023/09/18 04:09:25;;;;;;;8.00;4.60;;;18.90;99.90;;;;;;5053816;28;20303;-71
2023/09/18 04:11:55;;;;;;;4.17;3.93;;;18.90;99.90;;;;;;5052381;28;20287;-71
2023/09/18 04:14:24;;;;;;;4.10;3.80;;;18.80;99.90;;;;;;5050074;28;20311;-71
2023/09/18 04:16:52;;;;;;;5.23;4.00;;;18.80;99.90;;;;;;5045152;28;20233;-71
2023/09/18 04:19:21;;;;;;;5.13;3.80;;;18.80;99.90;;;;;;5056721;28;20258;-70
2023/09/18 04:21:49;;;;;;;4.07;3.40;;;18.80;99.90;;;;;;5053778;28;20687;-70
2023/09/18 04:24:17;;;;;;;5.33;3.73;;;18.80;99.90;;;;;;5055584;28;20192;-70
2023/09/18 04:26:46;;;;;;;4.70;3.20;;;18.80;99.90;;;;;;5060383;28;20196;-70
2023/09/18 04:29:16;;;;;;;3.77;3.40;;;18.80;99.90;;;;;;5057248;28;20316;-71
2023/09/18 04:31:44;;;;;;;3.50;3.20;;;18.80;99.90;;;;;;5055703;28;20274;-70
2023/09/18 04:34:13;;;;;;;2.80;2.70;;;18.70;99.90;;;;;;5056745;28;20312;-71
2023/09/18 04:36:43;;;;;;;3.20;3.00;;;18.80;99.90;;;;;;5053008;28;20277;-70
2023/09/18 04:39:11;;;;;;;3.50;3.20;;;18.80;99.90;;;;;;5056515;28;20219;-70
2023/09/18 04:41:49;;;;;;;6.60;3.10;;;18.80;99.90;;;;;;5055731;28;20217;-64
2023/09/18 04:44:19;;;;;;;2.70;2.60;;;18.70;99.90;;;;;;5060357;28;20220;-64
2023/09/18 04:46:48;;;;;;;2.80;2.53;;;18.70;99.90;;;;;;5049087;28;20221;-64
2023/09/18 04:49:17;;;;;;;3.07;2.70;;;18.70;99.90;;;;;;5054051;28;20299;-64
2023/09/18 04:51:45;;;;;;;7.63;2.90;;;18.70;99.90;;;;;;5055200;28;20248;-64
2023/09/18 04:54:15;;;;;;;3.37;2.80;;;18.70;99.90;;;;;;5055037;28;20203;-64
2023/09/18 04:56:43;;;;;;;3.07;2.87;;;18.60;99.90;;;;;;5047945;28;20728;-65
2023/09/18 04:59:12;;;;;;;2.87;2.53;;;18.70;99.90;;;;;;5054609;28;20212;-64
2023/09/18 05:01:42;;;;;;;3.90;2.60;;;18.60;99.90;;;;;;5055704;28;20319;-64
2023/09/18 05:04:11;;;;;;;2.83;2.60;;;18.60;99.90;;;;;;5043041;28;20213;-64
2023/09/18 05:06:40;;;;;;;2.77;2.40;;;18.60;99.90;;;;;;5051745;28;20602;-64
2023/09/18 05:09:09;;;;;;;7.43;2.50;;;18.60;99.90;;;;;;5043731;28;20243;-64
2023/09/18 05:11:37;;;;;;;2.60;2.50;;;18.60;99.90;;;;;;5045038;28;20685;-64
2023/09/18 05:14:06;;;;;;;2.70;2.50;;;18.60;99.90;;;;;;5051481;28;20223;-64
2023/09/18 05:16:34;;;;;;;4.00;2.47;;;18.60;99.90;;;;;;5053755;28;20220;-64
2023/09/18 05:19:05;;;;;;;2.80;2.60;;;18.50;99.90;;;;;;5057395;28;20319;-65
2023/09/18 05:21:33;;;;;;;4.93;2.63;;;18.50;99.90;;;;;;5051931;28;20347;-65
2023/09/18 05:24:04;;;;;;;2.93;2.63;;;18.50;99.90;;;;;;5053514;28;20205;-65
2023/09/18 05:26:33;;;;;;;5.03;2.53;;;18.40;99.90;;;;;;5051421;28;20232;-65
2023/09/18 05:29:03;;;;;;;3.70;2.77;;;18.50;99.90;;;;;;5050711;28;20216;-65
2023/09/18 05:31:32;;;;;;;4.13;2.50;;;18.40;99.90;;;;;;5052125;28;20220;-64
2023/09/18 05:34:00;;;;;;;2.47;2.23;;;18.40;99.90;;;;;;5049312;28;20221;-68
2023/09/18 05:36:30;;;;;;;3.67;2.43;;;18.40;99.90;;;;;;5053207;28;20674;-71
2023/09/18 05:39:00;;;;;;;2.93;2.47;;;18.50;99.90;;;;;;5037691;28;20312;-72
2023/09/18 05:41:31;;;;;;;5.00;2.67;;;18.40;99.90;;;;;;5029266;28;20250;-72
2023/09/18 05:44:03;;;;;;;2.83;2.57;;;18.40;99.90;;;;;;5051635;28;20225;-71
2023/09/18 05:46:32;;;;;;;3.43;3.00;;;18.30;99.90;;;;;;5046995;28;20248;-71
2023/09/18 05:49:00;;;;;;;2.77;2.67;;;18.30;99.90;;;;;;5045762;28;20867;-72
2023/09/18 05:51:32;;;;;;;3.37;2.63;;;18.20;99.90;;;;;;5044485;28;20673;-65
2023/09/18 05:54:02;;;;;;;3.40;3.10;;;18.20;99.90;;;;;;5032622;28;20193;-65
2023/09/18 05:56:31;;;;;;;3.03;2.83;;;18.30;99.90;;;;;;5056150;28;22292;-65
2023/09/18 05:58:59;;;;;;;3.10;2.77;;;18.30;99.90;;;;;;5041273;28;20220;-65
2023/09/18 06:01:27;;;;;;;3.30;3.00;;;18.20;99.90;;;;;;5039815;28;20315;-64
2023/09/18 06:03:56;;;;;;;6.13;3.13;;;18.20;99.90;;;;;;5027123;28;20676;-71
2023/09/18 06:06:25;;;;;;;2.70;2.60;;;18.20;99.90;;;;;;5028695;28;20643;-71
2023/09/18 06:08:55;;;;;;;6.00;2.63;;;18.20;99.90;;;;;;5031919;28;20201;-71
2023/09/18 06:11:24;;;;;;;2.83;2.73;;;18.30;99.90;;;;;;5034518;28;20304;-71
2023/09/18 06:13:52;;;;;;;3.90;2.60;;;18.30;99.90;;;;;;5029699;28;20229;-72
2023/09/18 06:16:20;;;;;;;6.27;3.33;;;18.30;99.90;;;;;;5031204;28;20312;-71
2023/09/18 06:18:49;;;;;;;3.63;3.30;;;18.20;99.90;;;;;;5040639;28;20248;-63
2023/09/18 06:21:18;;;;;;;6.07;3.40;;;18.20;99.90;;;;;;5028390;28;20212;-70
2023/09/18 06:23:46;;;;;;;6.80;3.27;;;18.10;99.90;;;;;;5029984;28;20223;-71
2023/09/18 06:26:16;;;;;;;3.43;3.03;;;18.10;99.90;;;;;;5033253;28;20232;-71
2023/09/18 06:28:44;;;;;;;4.43;3.00;;;18.20;99.90;;;;;;5033714;28;20221;-72
2023/09/18 06:31:12;;;;;;;4.10;2.73;;;18.20;99.90;;;;;;5037967;28;20247;-72
2023/09/18 06:33:41;;;;;;;6.47;3.43;;;18.10;99.90;;;;;;5034015;28;20224;-71
2023/09/18 06:36:09;;;;;;;3.07;2.87;;;18.20;99.90;;;;;;5026164;28;20186;-63
2023/09/18 06:38:38;;;;;;;6.77;3.37;;;18.20;99.90;;;;;;5019696;28;20769;-65
2023/09/18 06:41:06;;;;;;;3.60;2.70;;;18.30;99.90;;;;;;5033102;28;20216;-68
2023/09/18 06:43:36;;;;;;;3.47;3.17;;;18.20;99.90;;;;;;5035231;28;20232;-70
2023/09/18 06:46:08;;;;;;;3.73;3.20;;;18.20;99.90;;;;;;5034577;28;21034;-66
2023/09/18 06:48:37;;;;;;;3.43;3.13;;;18.30;99.90;;;;;;5031530;28;20591;-72
2023/09/18 06:51:06;;;;;;;8.47;4.13;;;18.30;99.90;;;;;;5023017;28;20188;-71
2023/09/18 06:53:34;;;;;;;6.20;3.77;;;18.40;99.90;;;;;;5035260;28;20590;-63
2023/09/18 06:56:03;;;;;;;3.90;3.37;;;18.40;99.90;;;;;;5034304;28;20230;-71
2023/09/18 06:58:32;;;;;;;5.63;3.13;;;18.50;99.90;;;;;;5040248;28;20646;-63
2023/09/18 07:01:03;;;;;;;4.47;3.70;;;18.50;99.90;;;;;;5038866;28;20221;-71
2023/09/18 07:03:32;;;;;;;3.73;3.50;;;18.50;99.90;;;;;;5036166;28;20230;-63
2023/09/18 07:06:00;;;;;;;6.23;3.87;;;18.50;99.90;;;;;;5079779;28;20206;-68
2023/09/18 07:08:30;;;;;;;5.07;3.73;;;18.50;99.90;;;;;;5030388;28;20304;-70
2023/09/18 07:10:58;;;;;;;7.10;3.37;;;18.60;99.90;;;;;;5040229;28;20295;-71
2023/09/18 07:13:26;;;;;;;6.27;3.73;;;18.80;99.90;;;;;;5036633;28;20227;-68
2023/09/18 07:15:55;;;;;;;4.23;3.80;;;19.00;99.90;;;;;;5043851;28;20302;-66
2023/09/18 07:18:25;;;;;;;6.70;3.30;;;19.20;99.90;;;;;;5055960;28;20204;-66
2023/09/18 07:20:54;;;;;;;4.03;3.50;;;19.30;99.90;;;;;;5054737;28;20203;-67
2023/09/18 07:23:23;;;;;;;5.93;3.53;;;19.50;99.90;;;;;;5054933;28;20594;-66
2023/09/18 07:25:51;;;;;;;4.97;3.67;;;19.50;99.90;;;;;;5049498;28;20220;-68
2023/09/18 07:28:20;;;;;;;8.53;3.70;;;19.50;99.90;;;;;;5055635;28;20339;-70
2023/09/18 07:30:48;;;;;;;4.70;3.40;;;19.50;99.90;;;;;;5054278;28;20227;-63
2023/09/18 07:33:17;;;;;;;4.30;3.90;;;19.50;99.90;;;;;;5054720;28;20196;-66
2023/09/18 07:35:49;;;;;;;4.10;3.43;;;19.50;99.90;;;;;;5053817;28;20576;-70
2023/09/18 07:38:18;;;;;;;4.10;3.73;;;19.40;99.90;;;;;;5054087;28;20273;-72
2023/09/18 07:40:47;;;;;;;4.53;3.57;;;19.40;99.90;;;;;;5050741;28;20220;-72
2023/09/18 07:43:16;;;;;;;7.17;3.67;;;19.30;99.90;;;;;;5060051;28;20216;-71
2023/09/18 07:45:44;;;;;;;4.67;3.40;;;19.30;99.90;;;;;;5055653;28;20221;-72
2023/09/18 07:48:12;;;;;;;3.67;3.37;;;19.30;99.90;;;;;;5057346;28;20956;-71
2023/09/18 07:50:45;;;;;;;4.23;3.17;;;19.40;99.90;;;;;;5053469;28;20207;-63
2023/09/18 07:53:15;;;;;;;5.33;3.90;;;19.40;99.90;;;;;;5054597;28;20220;-62
2023/09/18 07:55:43;;;;;;;7.37;3.57;;;19.40;99.90;;;;;;5052301;28;20224;-67
2023/09/18 07:58:11;;;;;;;5.60;3.43;;;19.40;99.90;;;;;;5054039;28;20302;-72
2023/09/18 08:00:40;;;;;;;5.00;3.67;;;19.60;99.90;;;;;;5052767;28;20620;-71
2023/09/18 08:03:09;;;;;;;5.20;3.80;;;19.70;99.90;;;;;;5050530;28;20524;-72
2023/09/18 08:05:37;;;;;;;4.87;3.80;;;19.90;99.90;;;;;;5055334;28;20257;-69
2023/09/18 08:08:06;;;;;;;7.13;3.77;;;19.90;99.90;;;;;;5055321;28;20221;-72
2023/09/18 08:10:40;;;;;;;4.37;3.97;;;19.80;99.90;;;;;;5052524;28;20266;-72
2023/09/18 08:13:08;;;;;;;5.53;3.83;;;19.80;99.90;;;;;;5056396;28;20216;-72
2023/09/18 08:15:37;;;;;;;5.47;3.77;;;19.80;99.90;;;;;;5045587;28;20232;-66
2023/09/18 08:18:06;;;;;;;7.87;4.40;;;19.80;99.90;;;;;;5052382;28;20644;-66
2023/09/18 08:20:35;;;;;;;5.60;4.23;;;19.70;99.90;;;;;;5053073;28;20219;-67
2023/09/18 08:23:05;;;;;;;4.47;3.93;;;19.70;99.90;;;;;;5053155;28;20220;-67
2023/09/18 08:25:33;;;;;;;5.60;3.40;;;19.70;99.90;;;;;;5051087;28;20240;-71
2023/09/18 08:28:04;;;;;;;10.63;4.07;;;19.70;99.90;;;;;;5054342;28;20230;-72
2023/09/18 08:30:38;;;;;;;7.57;4.37;;;19.70;99.90;;;;;;5052953;28;20253;-67
2023/09/18 08:33:07;;;;;;;4.77;3.87;;;19.70;99.90;;;;;;5053841;28;20685;-71
2023/09/18 08:35:36;;;;;;;4.90;4.50;;;19.70;99.90;;;;;;5053543;28;20575;-72
2023/09/18 08:38:04;;;;;;;3.93;3.50;;;19.60;99.90;;;;;;5049178;28;20693;-63
2023/09/18 08:40:34;;;;;;;9.50;3.90;;;19.60;99.90;;;;;;5050985;28;20270;-63
2023/09/18 08:43:06;;;;;;;18.60;4.13;;;19.60;99.90;;;;;;5048753;28;20246;-63
2023/09/18 08:45:39;;;;;;;6.87;3.90;;;19.50;99.90;;;;;;5051211;28;20226;-63
2023/09/18 08:48:08;;;;;;;8.33;4.60;;;19.60;99.90;;;;;;5052170;28;20204;-66
2023/09/18 08:50:38;;;;;;;6.87;3.80;;;19.50;99.90;;;;;;5054922;28;20205;-71
2023/09/18 08:53:07;;;;;;;4.47;4.17;;;19.50;99.90;;;;;;5050330;28;20201;-70
2023/09/18 08:55:35;;;;;;;5.50;4.23;;;19.40;99.90;;;;;;5051606;28;20212;-63
2023/09/18 08:58:09;;;;;;;4.77;4.37;;;19.40;99.90;;;;;;5055601;28;20567;-63
2023/09/18 09:00:38;;;;;;;5.30;3.87;;;19.40;99.90;;;;;;5057677;28;20244;-72
2023/09/18 09:03:06;;;;;;;6.47;4.40;;;19.50;99.90;;;;;;5051224;28;20665;-66
2023/09/18 09:05:35;;;;;;;6.50;4.30;;;19.50;99.90;;;;;;5057230;28;20249;-67
2023/09/18 09:08:03;;;;;;;4.43;4.00;;;19.50;99.90;;;;;;5051665;28;20228;-63
2023/09/18 09:10:32;;;;;;;6.90;4.90;;;19.60;99.90;;;;;;5054448;28;20224;-71
2023/09/18 09:13:01;;;;;;;6.73;4.90;;;19.70;99.90;;;;;;5051911;28;20224;-67
2023/09/18 09:15:36;;;;;;;6.13;4.63;;;19.70;99.90;;;;;;5053930;28;20224;-64
2023/09/18 09:18:06;;;;;;;8.57;4.90;;;19.70;99.90;;;;;;5054386;28;20196;-64
2023/09/18 09:20:36;;;;;;;6.70;5.00;;;19.70;99.90;;;;;;5052074;28;20191;-63
2023/09/18 09:23:06;;;;;;;5.00;4.63;;;19.70;99.90;;;;;;5045530;28;20240;-63
2023/09/18 09:25:34;;;;;;;5.17;4.73;;;19.70;99.90;;;;;;5055502;28;20248;-63
2023/09/18 09:28:05;;;;;;;5.63;4.50;;;19.70;99.90;;;;;;5054628;28;20302;-63
2023/09/18 09:30:36;;;;;;;5.80;5.20;;;19.70;99.90;;;;;;5058906;28;20216;-63
2023/09/18 09:33:07;;;;;;;5.87;4.80;;;19.60;99.90;;;;;;5056275;28;20234;-63
2023/09/18 09:35:37;;;;;;;8.37;4.30;;;19.60;99.90;;;;;;5054853;28;20213;-63
2023/09/18 09:38:10;;;;;;;6.73;4.53;;;19.60;99.90;;;;;;5055009;28;20213;-64
2023/09/18 09:40:41;;;;;;;4.20;3.90;;;19.60;99.90;;;;;;5054862;28;20221;-63
2023/09/18 09:43:13;;;;;;;9.90;4.80;;;19.70;99.90;;;;;;5038478;28;20295;-62
2023/09/18 09:45:46;;;;;;;8.97;5.37;;;19.80;99.90;;;;;;5024473;28;20303;-63
2023/09/18 09:48:15;;;;;;;8.30;6.43;;;19.70;99.90;;;;;;5023030;28;20206;-62
2023/09/18 09:50:48;;;;;;;9.10;6.40;;;19.60;99.90;;;;;;5024162;28;20308;-61
2023/09/18 09:53:17;;;;;;;8.23;7.20;;;19.60;99.90;;;;;;5029829;28;20209;-61
2023/09/18 09:55:54;;;;;;;12.87;7.03;;;19.60;99.90;;;;;;5045899;28;20221;-62
2023/09/18 09:58:30;;;;;;;10.30;6.90;;;19.50;99.90;;;;;;5053664;28;21019;-61
2023/09/18 10:01:09;;;;;;;9.50;7.73;;;19.60;99.90;;;;;;5051235;28;20307;-62
2023/09/18 10:03:38;;;;;;;8.50;6.97;;;19.50;99.90;;;;;;5053483;28;20228;-63
2023/09/18 10:06:10;;;;;;;7.80;6.57;;;19.50;99.90;;;;;;5052933;28;20185;-62
2023/09/18 10:08:40;;;;;;;10.73;6.10;;;19.40;99.90;;;;;;5052276;28;20225;-63
2023/09/18 10:11:12;;;;;;;8.63;5.70;;;19.40;99.90;;;;;;5046287;28;20691;-63
2023/09/18 10:13:46;;;;;;;6.33;5.83;;;19.40;99.90;;;;;;5064613;28;20267;-63
2023/09/18 10:16:20;;;;;;;7.30;5.93;;;19.40;99.90;;;;;;5049807;28;20227;-63
2023/09/18 10:18:59;;;;;;;7.03;5.90;;;19.50;99.90;;;;;;5052405;28;20582;-63
2023/09/18 10:21:32;;;;;;;7.30;4.87;;;19.60;99.90;;;;;;5050954;28;20552;-62
2023/09/18 10:24:12;;;;;;;4.53;4.13;;;19.80;99.90;;;;;;5057690;28;20291;-63
2023/09/18 10:26:51;;;;;;;4.57;4.10;;;20.10;99.90;;;;;;5034251;28;20216;-62
2023/09/18 10:29:21;;;;;;;7.10;3.20;;;20.60;99.90;;;;;;5029505;28;20568;-63
2023/09/18 10:31:52;;;;;;;4.57;3.27;;;20.90;99.90;;;;;;5033960;28;20229;-63
2023/09/18 10:34:21;;;;;;;5.67;3.43;;;21.20;99.90;;;;;;5034112;28;20232;-63
2023/09/18 10:36:50;;;;;;;5.40;3.60;;;21.40;99.90;;;;;;5038309;28;20217;-63
2023/09/18 10:39:19;;;;;;;5.63;3.20;;;21.50;99.90;;;;;;5027269;28;20574;-63
2023/09/18 10:41:49;;;;;;;4.93;3.00;;;21.40;99.90;;;;;;5034938;28;20736;-63
2023/09/18 10:44:18;;;;;;;4.10;2.97;;;21.70;99.90;;;;;;5037217;28;20708;-63
2023/09/18 10:46:48;;;;;;;3.53;2.53;;;22.00;99.90;;;;;;5034876;28;20233;-63
2023/09/18 10:49:18;;;;;;;4.80;2.93;;;22.00;99.90;;;;;;5037723;28;20214;-62
2023/09/18 10:51:48;;;;;;;6.53;2.80;;;21.70;99.90;;;;;;5039775;28;20230;-64
2023/09/18 10:54:17;;;;;;;3.77;3.30;;;21.40;99.90;;;;;;5037325;28;20198;-65
2023/09/18 10:56:46;;;;;;;6.63;3.03;;;21.40;99.90;;;;;;5035511;28;20194;-65
2023/09/18 10:59:16;;;;;;;3.60;3.33;;;21.20;99.90;;;;;;5020802;28;20223;-64
2023/09/18 11:01:50;;;;;;;3.87;2.90;;;21.10;99.90;;;;;;5036873;28;20217;-63
2023/09/18 11:04:22;;;;;;;4.23;2.87;;;21.20;99.90;;;;;;5037805;28;20291;-64
2023/09/18 11:07:04;;;;;;;3.43;3.13;;;21.60;99.90;;;;;;5042249;28;20230;-64
2023/09/18 11:09:42;;;;;;;3.37;3.17;;;21.80;99.90;;;;;;5039941;28;20911;-63
2023/09/18 11:12:11;;;;;;;4.87;3.37;;;21.90;99.90;;;;;;5038733;28;20533;-64
2023/09/18 11:14:49;;;;;;;5.73;3.27;;;21.80;99.90;;;;;;5038683;28;20191;-64
2023/09/18 11:17:34;;;;;;;5.73;3.17;;;22.00;99.90;;;;;;5040908;28;20215;-64
2023/09/18 11:20:11;;;;;;;5.10;2.90;;;22.40;99.90;;;;;;5032036;28;20225;-64
2023/09/18 11:22:47;;;;;;;4.33;3.00;;;22.60;99.90;;;;;;5031503;28;20226;-64
2023/09/18 11:25:38;;;;;;;3.40;3.03;;;22.80;99.90;;;;;;5032988;28;20301;-63
2023/09/18 11:28:08;;;;;;;3.20;2.90;;;22.80;99.90;;;;;;5034920;28;20232;-62
2023/09/18 11:30:38;;;;;;;7.53;2.93;;;22.70;99.90;;;;;;5033672;28;20275;-62
2023/09/18 11:33:08;;;;;;;3.40;3.10;;;22.70;99.90;;;;;;5030905;28;20278;-64
2023/09/18 11:35:52;;;;;;;3.33;3.03;;;23.00;99.90;;;;;;5035790;28;20263;-61
2023/09/18 11:38:22;;;;;;;3.20;2.40;;;23.20;99.90;;;;;;5035372;28;20216;-61
2023/09/18 11:40:58;;;;;;;3.40;2.93;;;23.50;99.90;;;;;;5034884;28;20247;-62
2023/09/18 11:43:52;;;;;;;4.47;2.77;;;23.60;99.90;;;;;;5034912;28;20239;-63
2023/09/18 11:46:21;;;;;;;3.90;2.47;;;23.40;99.90;;;;;;5035128;28;20217;-63
2023/09/18 11:48:53;;;;;;;2.80;2.60;;;23.40;99.90;;;;;;5035790;28;20665;-62
2023/09/18 11:51:24;;;;;;;3.20;2.70;;;23.20;99.90;;;;;;5049562;28;20193;-63
2023/09/18 11:53:57;;;;;;;2.83;2.43;;;23.20;99.90;;;;;;5038727;28;20181;-63
2023/09/18 11:56:25;;;;;;;2.70;2.50;;;23.00;99.90;;;;;;5054585;28;20238;-62
2023/09/18 11:58:54;;;;;;;2.93;2.40;;;23.10;99.90;;;;;;5061757;28;20244;-63
2023/09/18 12:01:23;;;;;;;5.73;2.57;;;23.30;99.90;;;;;;5055314;28;20222;-63
2023/09/18 12:03:55;;;;;;;3.00;2.60;;;23.40;99.90;;;;;;5054568;28;20223;-63
2023/09/18 12:06:25;;;;;;;4.27;3.00;;;23.80;99.90;;;;;;5055243;28;20405;-64
2023/09/18 12:08:55;;;;;;;2.70;2.50;;;24.00;99.90;;;;;;5054836;28;20274;-62
2023/09/18 12:11:23;;;;;;;4.50;2.50;;;23.90;99.90;;;;;;5055687;28;20725;-63
2023/09/18 12:13:52;;;;;;;4.63;2.37;;;23.70;99.90;;;;;;5067508;28;20621;-62
2023/09/18 12:16:21;;;;;;;2.50;2.30;;;23.70;99.90;;;;;;5053097;28;20281;-63
2023/09/18 12:18:50;;;;;;;6.10;2.50;;;24.00;99.90;;;;;;5062486;28;20228;-63
2023/09/18 12:21:18;;;;;;;2.67;2.43;;;23.90;99.90;;;;;;5053064;28;20202;-63
2023/09/18 12:24:24;;;;;;;5.73;2.33;;;24.10;99.90;;;;;;5047247;28;20240;-63
2023/09/18 12:30:35;;;;;;;3.13;2.40;;;23.90;99.90;;;;;;5023581;28;20256;-63
2023/09/18 12:33:04;;;;;;;2.53;2.20;;;23.90;99.90;;;;;;5026402;28;20243;-63
2023/09/18 12:35:33;;;;;;;3.60;2.47;;;23.80;99.90;;;;;;5034654;28;20215;-64
2023/09/18 12:38:04;;;;;;;2.77;2.57;;;23.80;99.90;;;;;;5035593;28;20745;-63
2023/09/18 12:40:33;;;;;;;4.37;2.47;;;23.80;99.90;;;;;;5036080;28;20221;-63
2023/09/18 12:43:03;;;;;;;4.30;2.83;;;23.90;99.90;;;;;;5034512;28;20748;-63
2023/09/18 12:45:31;;;;;;;2.60;2.40;;;23.90;99.90;;;;;;5032687;28;20580;-64
2023/09/18 12:48:03;;;;;;;3.50;2.63;;;24.00;99.90;;;;;;5034670;28;20203;-63
2023/09/18 12:50:34;;;;;;;2.40;2.30;;;24.10;99.90;;;;;;5022314;28;20555;-63
2023/09/18 12:53:10;;;;;;;2.20;2.07;;;24.00;99.90;;;;;;5042144;28;20217;-63
2023/09/18 12:55:39;;;;;;;4.27;2.60;;;23.80;99.90;;;;;;5035214;28;20231;-64
2023/09/18 13:01:49;;;;;;;5.10;2.10;;;23.80;99.90;;;;;;5035932;28;20213;-63
2023/09/18 13:04:22;;;;;;;2.77;1.90;;;24.00;99.90;;;;;;5022749;28;20313;-63
2023/09/18 13:07:05;;;;;;;6.10;2.30;;;23.90;99.90;;;;;;5033173;28;20236;-63
2023/09/18 13:09:35;;;;;;;3.87;2.30;;;24.00;99.90;;;;;;5040286;28;20306;-63